createdAt,value
2019-01-06T00:01:48.664Z,8.33
2019-01-06T00:04:37.998Z,8.30
2019-01-06T00:07:35.099Z,8.27
2019-01-06T00:10:25.412Z,8.28
2019-01-06T00:13:17.671Z,8.29
2019-01-06T00:16:22.365Z,8.29
2019-01-06T00:19:13.272Z,8.28
2019-01-06T00:22:05.294Z,8.29
2019-01-06T00:24:57.547Z,8.27
2019-01-06T00:27:51.132Z,8.26
2019-01-06T00:30:50.975Z,8.26
2019-01-06T00:33:40.133Z,8.26
2019-01-06T00:36:31.311Z,8.25
2019-01-06T00:39:20.703Z,8.27
2019-01-06T00:42:12.917Z,8.28
2019-01-06T00:45:02.758Z,8.26
2019-01-06T00:47:53.694Z,8.24
2019-01-06T00:50:44.364Z,8.26
2019-01-06T00:53:34.082Z,8.28
2019-01-06T00:56:16.069Z,8.29
2019-01-06T00:59:15.935Z,8.31
2019-01-06T01:02:05.309Z,8.36
2019-01-06T01:05:09.519Z,8.41
2019-01-06T01:07:57.129Z,8.43
2019-01-06T01:10:50.637Z,8.43
2019-01-06T01:13:48.105Z,8.45
2019-01-06T01:16:40.178Z,8.47
2019-01-06T01:19:30.790Z,8.48
2019-01-06T01:22:28.318Z,8.50
2019-01-06T01:25:33.956Z,8.53
2019-01-06T01:28:24.566Z,8.56
2019-01-06T01:31:13.946Z,8.57
2019-01-06T01:33:59.721Z,8.58
2019-01-06T01:36:50.256Z,8.57
2019-01-06T01:39:41.923Z,8.58
2019-01-06T01:42:31.803Z,8.57
2019-01-06T01:45:22.876Z,8.59
2019-01-06T01:48:31.865Z,8.59
2019-01-06T01:51:21.751Z,8.59
2019-01-06T01:54:15.824Z,8.58
2019-01-06T01:57:13.877Z,8.58
2019-01-06T02:00:23.025Z,8.60
2019-01-06T02:03:27.919Z,8.63
2019-01-06T02:06:23.382Z,8.64
2019-01-06T02:09:12.571Z,8.66
2019-01-06T02:12:03.688Z,8.68
2019-01-06T02:14:56.520Z,8.67
2019-01-06T02:17:47.814Z,8.69
2019-01-06T02:20:47.983Z,8.71
2019-01-06T02:23:55.450Z,8.73
2019-01-06T02:26:49.716Z,8.75
2019-01-06T02:29:51.072Z,8.75
2019-01-06T02:32:41.633Z,8.76
2019-01-06T02:35:38.429Z,8.76
2019-01-06T02:38:29.071Z,8.74
2019-01-06T02:41:25.383Z,8.71
2019-01-06T02:44:27.307Z,8.68
2019-01-06T02:47:21.594Z,8.66
2019-01-06T02:50:15.271Z,8.64
2019-01-06T02:53:01.950Z,8.62
2019-01-06T02:56:01.726Z,8.62
2019-01-06T02:58:51.242Z,8.59
2019-01-06T03:01:40.589Z,8.59
2019-01-06T03:04:33.739Z,8.56
2019-01-06T03:07:23.280Z,8.54
2019-01-06T03:10:32.441Z,8.52
2019-01-06T03:13:21.913Z,8.50
2019-01-06T03:16:11.369Z,8.46
2019-01-06T03:19:14.787Z,8.43
2019-01-06T03:22:08.503Z,8.43
2019-01-06T03:25:14.276Z,8.41
2019-01-06T03:28:03.632Z,8.42
2019-01-06T03:30:56.024Z,8.38
2019-01-06T03:33:46.598Z,8.37
2019-01-06T03:36:37.088Z,8.33
2019-01-06T03:39:26.390Z,8.33
2019-01-06T03:42:15.702Z,8.34
2019-01-06T03:45:06.552Z,8.33
2019-01-06T03:47:51.554Z,8.33
2019-01-06T03:50:51.149Z,8.33
2019-01-06T03:53:40.646Z,8.33
2019-01-06T03:56:29.860Z,8.34
2019-01-06T03:59:20.617Z,8.35
2019-01-06T04:02:11.541Z,8.38
2019-01-06T04:05:00.674Z,8.39
2019-01-06T04:07:49.769Z,8.38
2019-01-06T04:10:40.303Z,8.39
2019-01-06T04:13:29.948Z,8.40
2019-01-06T04:16:14.398Z,8.42
2019-01-06T04:19:21.166Z,8.42
2019-01-06T04:22:25.599Z,8.43
2019-01-06T04:25:21.705Z,8.43
2019-01-06T04:28:12.311Z,8.44
2019-01-06T04:31:12.282Z,8.44
2019-01-06T04:34:21.037Z,8.43
2019-01-06T04:37:21.674Z,8.42
2019-01-06T04:40:27.682Z,8.42
2019-01-06T04:43:26.586Z,8.42
2019-01-06T04:46:19.370Z,8.41
2019-01-06T04:49:19.424Z,8.40
2019-01-06T04:52:12.924Z,8.41
2019-01-06T04:55:02.495Z,8.40
2019-01-06T04:57:51.648Z,8.40
2019-01-06T05:00:41.059Z,8.39
2019-01-06T05:03:30.822Z,8.38
2019-01-06T05:06:19.973Z,8.40
2019-01-06T05:09:33.199Z,8.40
2019-01-06T05:12:31.600Z,8.40
2019-01-06T05:15:20.900Z,8.38
2019-01-06T05:18:13.473Z,8.38
2019-01-06T05:21:25.903Z,8.38
2019-01-06T05:24:37.642Z,8.37
2019-01-06T05:27:26.968Z,8.38
2019-01-06T05:30:26.470Z,8.41
2019-01-06T05:33:35.195Z,8.42
2019-01-06T05:36:24.610Z,8.42
2019-01-06T05:39:15.111Z,8.41
2019-01-06T05:42:05.622Z,8.44
2019-01-06T05:44:59.665Z,8.43
2019-01-06T05:47:49.249Z,8.44
2019-01-06T05:50:38.551Z,8.45
2019-01-06T05:53:28.242Z,8.44
2019-01-06T05:56:09.951Z,8.43
2019-01-06T05:58:54.084Z,8.41
2019-01-06T06:01:43.804Z,8.40
2019-01-06T06:04:34.316Z,8.39
2019-01-06T06:07:23.784Z,8.37
2019-01-06T06:10:18.008Z,8.37
2019-01-06T06:13:14.353Z,8.37
2019-01-06T06:16:13.825Z,8.36
2019-01-06T06:19:07.792Z,8.36
2019-01-06T06:21:58.172Z,8.36
2019-01-06T06:24:47.627Z,8.34
2019-01-06T06:27:37.246Z,8.34
2019-01-06T06:30:29.016Z,8.33
2019-01-06T06:33:22.320Z,8.31
2019-01-06T06:39:11.589Z,8.27
2019-01-06T06:42:03.891Z,8.26
2019-01-06T06:45:00.275Z,8.25
2019-01-06T06:47:48.626Z,8.26
2019-01-06T06:50:41.963Z,8.26
2019-01-06T06:53:50.643Z,8.27
2019-01-06T06:56:45.442Z,8.25
2019-01-06T06:59:48.565Z,8.26
2019-01-06T07:03:34.999Z,8.27
2019-01-06T07:06:29.278Z,8.26
2019-01-06T07:09:11.449Z,8.24
2019-01-06T07:12:05.872Z,8.26
2019-01-06T07:15:13.746Z,8.28
2019-01-06T07:18:09.237Z,8.32
2019-01-06T07:21:15.078Z,8.37
2019-01-06T07:24:05.071Z,8.40
2019-01-06T07:26:54.255Z,8.42
2019-01-06T07:29:44.013Z,8.45
2019-01-06T07:32:33.448Z,8.47
2019-01-06T07:35:27.090Z,8.46
2019-01-06T07:38:10.593Z,8.46
2019-01-06T07:41:01.444Z,8.44
2019-01-06T07:43:54.870Z,8.42
2019-01-06T07:47:03.678Z,8.42
2019-01-06T07:49:56.848Z,8.41
2019-01-06T07:53:00.662Z,8.39
2019-01-06T07:56:08.568Z,8.38
2019-01-06T07:59:01.918Z,8.39
2019-01-06T08:01:58.457Z,8.36
2019-01-06T08:04:47.636Z,8.35
2019-01-06T08:07:47.485Z,8.32
2019-01-06T08:10:37.147Z,8.30
2019-01-06T08:13:26.548Z,8.28
2019-01-06T08:16:30.316Z,8.26
2019-01-06T08:19:19.018Z,8.27
2019-01-06T08:22:10.319Z,8.24
2019-01-06T08:25:12.803Z,8.23
2019-01-06T08:28:03.588Z,8.22
2019-01-06T08:30:52.778Z,8.23
2019-01-06T08:33:42.263Z,8.22
2019-01-06T08:36:43.671Z,8.22
2019-01-06T08:39:43.543Z,8.24
2019-01-06T08:42:38.532Z,8.24
2019-01-06T08:45:34.401Z,8.28
2019-01-06T08:48:20.739Z,8.30
2019-01-06T08:51:11.208Z,8.32
2019-01-06T08:54:01.594Z,8.34
2019-01-06T08:57:03.112Z,8.35
2019-01-06T09:00:02.794Z,8.38
2019-01-06T09:02:47.168Z,8.43
2019-01-06T09:05:39.619Z,8.46
2019-01-06T09:08:48.423Z,8.50
2019-01-06T09:11:47.393Z,8.52
2019-01-06T09:14:37.613Z,8.53
2019-01-06T09:17:42.026Z,8.53
2019-01-06T09:20:34.645Z,8.53
2019-01-06T09:23:41.281Z,8.52
2019-01-06T09:26:33.665Z,8.53
2019-01-06T09:29:28.960Z,8.55
2019-01-06T09:32:25.883Z,8.59
2019-01-06T09:35:31.153Z,8.61
2019-01-06T09:38:26.895Z,8.61
2019-01-06T09:41:19.251Z,8.63
2019-01-06T09:44:20.255Z,8.65
2019-01-06T09:47:15.429Z,8.69
2019-01-06T09:50:14.385Z,8.70
2019-01-06T09:53:23.252Z,8.69
2019-01-06T09:56:15.185Z,8.68
2019-01-06T09:59:15.553Z,8.67
2019-01-06T10:02:16.395Z,8.68
2019-01-06T10:05:10.167Z,8.69
2019-01-06T10:08:11.420Z,8.71
2019-01-06T10:11:04.018Z,8.74
2019-01-06T10:13:57.896Z,8.77
2019-01-06T10:16:48.820Z,8.76
2019-01-06T10:19:31.916Z,8.78
2019-01-06T10:22:21.291Z,8.79
2019-01-06T10:25:21.103Z,8.80
2019-01-06T10:28:14.836Z,8.81
2019-01-06T10:31:11.735Z,8.81
2019-01-06T10:34:02.276Z,8.83
2019-01-06T10:36:58.992Z,8.82
2019-01-06T10:39:55.335Z,8.83
2019-01-06T10:42:44.781Z,8.84
2019-01-06T10:45:34.018Z,8.87
2019-01-06T10:48:24.753Z,8.88
2019-01-06T10:51:28.802Z,8.89
2019-01-06T10:54:25.508Z,8.91
2019-01-06T10:57:18.821Z,8.90
2019-01-06T11:00:08.674Z,8.89
2019-01-06T11:03:05.243Z,8.88
2019-01-06T11:05:58.825Z,8.90
2019-01-06T11:08:48.490Z,8.95
2019-01-06T11:11:57.603Z,8.97
2019-01-06T11:14:54.676Z,8.99
2019-01-06T11:17:44.084Z,9.00
2019-01-06T11:20:33.482Z,9.02
2019-01-06T11:23:24.152Z,9.02
2019-01-06T11:26:13.524Z,9.02
2019-01-06T11:28:59.811Z,9.04
2019-01-06T11:31:49.397Z,9.06
2019-01-06T11:34:43.517Z,9.06
2019-01-06T11:37:39.947Z,9.06
2019-01-06T11:40:34.065Z,9.04
2019-01-06T11:43:33.801Z,9.04
2019-01-06T11:46:24.368Z,9.03
2019-01-06T11:49:17.937Z,9.04
2019-01-06T11:52:07.417Z,9.05
2019-01-06T11:54:57.179Z,9.11
2019-01-06T11:57:47.899Z,9.14
2019-01-06T12:00:38.472Z,9.14
2019-01-06T12:03:35.434Z,9.16
2019-01-06T12:06:26.209Z,9.18
2019-01-06T12:09:09.452Z,9.20
2019-01-06T12:11:58.824Z,9.23
2019-01-06T12:14:56.450Z,9.24
2019-01-06T12:17:45.791Z,9.20
2019-01-06T12:20:32.591Z,9.14
2019-01-06T12:23:26.496Z,9.07
2019-01-06T12:26:25.816Z,9.06
2019-01-06T12:29:34.816Z,9.05
2019-01-06T12:32:28.400Z,9.03
2019-01-06T12:35:33.836Z,9.01
2019-01-06T12:38:35.159Z,9.00
2019-01-06T12:41:26.863Z,8.98
2019-01-06T12:44:32.777Z,9.01
2019-01-06T12:47:26.423Z,9.03
2019-01-06T12:50:23.201Z,9.01
2019-01-06T12:53:12.990Z,8.99
2019-01-06T12:56:06.984Z,8.98
2019-01-06T12:58:56.178Z,8.95
2019-01-06T13:02:05.012Z,8.93
2019-01-06T13:04:58.962Z,8.91
2019-01-06T13:07:55.638Z,8.88
2019-01-06T13:10:45.292Z,8.87
2019-01-06T13:13:49.401Z,8.90
2019-01-06T13:16:47.180Z,8.90
2019-01-06T13:19:52.927Z,8.91
2019-01-06T13:22:42.204Z,8.92
2019-01-06T13:25:35.014Z,8.93
2019-01-06T13:28:26.430Z,8.96
2019-01-06T13:31:16.144Z,8.99
2019-01-06T13:34:05.759Z,9.04
2019-01-06T13:37:08.530Z,9.04
2019-01-06T13:40:05.100Z,9.05
2019-01-06T13:42:55.888Z,9.05
2019-01-06T13:45:45.395Z,9.08
2019-01-06T13:48:52.627Z,9.14
2019-01-06T13:51:42.428Z,9.18
2019-01-06T13:54:41.758Z,9.21
2019-01-06T13:57:38.020Z,9.23
2019-01-06T14:00:28.986Z,9.23
2019-01-06T14:03:23.290Z,9.24
2019-01-06T14:06:12.939Z,9.26
2019-01-06T14:09:10.363Z,9.22
2019-01-06T14:12:10.171Z,9.23
2019-01-06T14:15:05.219Z,9.24
2019-01-06T14:17:59.078Z,9.24
2019-01-06T14:21:04.992Z,9.23
2019-01-06T14:23:54.184Z,9.26
2019-01-06T14:27:03.332Z,9.28
2019-01-06T14:29:52.988Z,9.29
2019-01-06T14:32:47.681Z,9.27
2019-01-06T14:35:37.213Z,9.27
2019-01-06T14:38:23.337Z,9.24
2019-01-06T14:41:14.317Z,9.24
2019-01-06T14:44:18.181Z,9.25
2019-01-06T14:47:10.787Z,9.27
2019-01-06T14:50:19.862Z,9.28
2019-01-06T14:53:09.172Z,9.27
2019-01-06T14:56:11.796Z,9.26
2019-01-06T14:59:17.475Z,9.28
2019-01-06T15:02:14.104Z,9.28
2019-01-06T15:05:07.676Z,9.30
2019-01-06T15:08:10.613Z,9.28
2019-01-06T15:10:54.757Z,9.27
2019-01-06T15:13:59.031Z,9.26
2019-01-06T15:16:49.620Z,9.24
2019-01-06T15:19:39.101Z,9.27
2019-01-06T15:22:32.594Z,9.26
2019-01-06T15:25:21.465Z,9.26
2019-01-06T15:28:19.142Z,9.26
2019-01-06T15:31:13.082Z,9.26
2019-01-06T15:34:22.468Z,9.24
2019-01-06T15:37:09.540Z,9.22
2019-01-06T15:40:02.832Z,9.19
2019-01-06T15:42:45.409Z,9.19
2019-01-06T15:45:45.061Z,9.19
2019-01-06T15:48:36.215Z,9.17
2019-01-06T15:51:25.535Z,9.16
2019-01-06T15:54:31.628Z,9.15
2019-01-06T15:57:37.614Z,9.14
2019-01-06T16:00:44.005Z,9.14
2019-01-06T16:03:37.409Z,9.13
2019-01-06T16:06:46.744Z,9.11
2019-01-06T16:09:36.436Z,9.08
2019-01-06T16:12:36.080Z,9.07
2019-01-06T16:15:33.163Z,9.06
2019-01-06T16:18:26.688Z,9.03
2019-01-06T16:21:33.886Z,9.00
2019-01-06T16:24:24.884Z,9.00
2019-01-06T16:27:29.367Z,8.98
2019-01-06T16:30:38.432Z,8.98
2019-01-06T16:33:42.234Z,8.97
2019-01-06T16:36:35.762Z,8.97
2019-01-06T16:39:25.846Z,8.96
2019-01-06T16:42:19.476Z,8.93
2019-01-06T16:45:08.751Z,8.96
2019-01-06T16:48:11.495Z,8.93
2019-01-06T16:51:01.160Z,8.92
2019-01-06T16:53:55.449Z,8.90
2019-01-06T16:56:46.383Z,8.87
2019-01-06T16:59:49.443Z,8.83
2019-01-06T17:02:46.517Z,8.85
2019-01-06T17:05:46.517Z,8.81
2019-01-06T17:08:39.997Z,8.85
2019-01-06T17:11:34.041Z,8.86
2019-01-06T17:14:27.493Z,8.89
2019-01-06T17:17:22.647Z,8.88
2019-01-06T17:20:03.851Z,8.91
2019-01-06T17:22:53.321Z,8.90
2019-01-06T17:25:53.144Z,8.89
2019-01-06T17:28:42.347Z,8.89
2019-01-06T17:31:34.834Z,8.87
2019-01-06T17:34:43.871Z,8.86
2019-01-06T17:37:46.717Z,8.85
2019-01-06T17:40:47.915Z,8.85
2019-01-06T17:43:38.529Z,8.85
2019-01-06T17:46:35.113Z,8.85
2019-01-06T17:49:28.582Z,8.85
2019-01-06T17:52:26.683Z,8.84
2019-01-06T17:55:17.306Z,8.84
2019-01-06T17:58:04.215Z,8.80
2019-01-06T18:00:53.789Z,8.79
2019-01-06T18:03:59.652Z,8.80
2019-01-06T18:06:48.852Z,8.79
2019-01-06T18:09:38.436Z,8.77
2019-01-06T18:12:26.417Z,8.75
2019-01-06T18:15:15.854Z,8.71
2019-01-06T18:18:05.183Z,8.72
2019-01-06T18:20:54.626Z,8.68
2019-01-06T18:23:55.238Z,8.65
2019-01-06T18:26:45.087Z,8.62
2019-01-06T18:29:50.725Z,8.62
2019-01-06T18:32:44.459Z,8.62
2019-01-06T18:35:40.417Z,8.63
2019-01-06T18:38:31.003Z,8.60
2019-01-06T18:41:20.618Z,8.60
2019-01-06T18:44:14.250Z,8.61
2019-01-06T18:47:08.088Z,8.60
2019-01-06T18:49:53.037Z,8.59
2019-01-06T18:52:53.257Z,8.60
2019-01-06T18:55:47.497Z,8.62
2019-01-06T18:58:36.843Z,8.63
2019-01-06T19:01:26.324Z,8.64
2019-01-06T19:04:17.373Z,8.64
2019-01-06T19:07:03.538Z,8.64
2019-01-06T19:09:47.622Z,8.64
2019-01-06T19:12:41.282Z,8.62
2019-01-06T19:15:47.271Z,8.63
2019-01-06T19:18:37.085Z,8.63
2019-01-06T19:21:28.039Z,8.63
2019-01-06T19:24:20.936Z,8.62
2019-01-06T19:27:27.240Z,8.62
2019-01-06T19:30:26.545Z,8.64
2019-01-06T19:33:20.128Z,8.63
2019-01-06T19:36:09.779Z,8.63
2019-01-06T19:39:09.614Z,8.65
2019-01-06T19:42:01.918Z,8.69
2019-01-06T19:44:48.409Z,8.71
2019-01-06T19:47:37.709Z,8.73
2019-01-06T19:50:26.992Z,8.72
2019-01-06T19:53:17.706Z,8.72
2019-01-06T19:56:17.189Z,8.70
2019-01-06T19:59:06.445Z,8.74
2019-01-06T20:01:56.066Z,8.73
2019-01-06T20:05:00.662Z,8.68
2019-01-06T20:08:00.993Z,8.65
2019-01-06T20:10:57.586Z,8.61
2019-01-06T20:13:46.399Z,8.59
2019-01-06T20:16:51.434Z,8.59
2019-01-06T20:19:42.221Z,8.58
2019-01-06T20:22:31.520Z,8.55
2019-01-06T20:25:32.001Z,8.54
2019-01-06T20:28:21.099Z,8.52
2019-01-06T20:31:10.321Z,8.51
2019-01-06T20:33:59.781Z,8.52
2019-01-06T20:36:53.439Z,8.53
2019-01-06T20:39:49.905Z,8.53
2019-01-06T20:42:56.024Z,8.50
2019-01-06T20:45:45.482Z,8.50
2019-01-06T20:48:35.125Z,8.50
2019-01-06T20:51:25.856Z,8.51
2019-01-06T20:54:21.760Z,8.50
2019-01-06T20:57:11.323Z,8.49
2019-01-06T21:00:17.116Z,8.50
2019-01-06T21:03:10.934Z,8.52
2019-01-06T21:06:13.658Z,8.52
2019-01-06T21:09:18.684Z,8.53
2019-01-06T21:12:07.831Z,8.54
2019-01-06T21:14:57.164Z,8.53
2019-01-06T21:17:57.043Z,8.54
2019-01-06T21:20:50.893Z,8.53
2019-01-06T21:23:41.098Z,8.54
2019-01-06T21:26:34.791Z,8.55
2019-01-06T21:29:40.631Z,8.54
2019-01-06T21:32:43.100Z,8.55
2019-01-06T21:35:45.703Z,8.54
2019-01-06T21:38:34.882Z,8.52
2019-01-06T21:41:43.668Z,8.52
2019-01-06T21:44:43.175Z,8.51
2019-01-06T21:47:32.711Z,8.50
2019-01-06T21:50:16.538Z,8.49
2019-01-06T21:53:05.595Z,8.49
2019-01-06T21:55:56.207Z,8.49
2019-01-06T21:59:03.176Z,8.51
2019-01-06T22:02:06.210Z,8.53
2019-01-06T22:04:57.032Z,8.54
2019-01-06T22:07:56.493Z,8.53
2019-01-06T22:10:47.053Z,8.49
2019-01-06T22:13:43.809Z,8.50
2019-01-06T22:16:44.326Z,8.47
2019-01-06T22:19:44.859Z,8.48
2019-01-06T22:22:35.966Z,8.50
2019-01-06T22:25:36.758Z,8.54
2019-01-06T22:28:34.988Z,8.58
2019-01-06T22:31:25.344Z,8.58
2019-01-06T22:34:30.600Z,8.57
2019-01-06T22:37:21.058Z,8.57
2019-01-06T22:40:18.112Z,8.56
2019-01-06T22:43:28.459Z,8.55
2019-01-06T22:46:28.131Z,8.53
2019-01-06T22:49:22.242Z,8.53
2019-01-06T22:52:11.476Z,8.51
2019-01-06T22:55:00.202Z,8.52
2019-01-06T22:57:56.869Z,8.50
2019-01-06T23:00:50.284Z,8.48
2019-01-06T23:03:42.367Z,8.49
2019-01-06T23:06:51.046Z,8.48
2019-01-06T23:09:40.815Z,8.50
2019-01-06T23:12:45.465Z,8.50
2019-01-06T23:15:48.942Z,8.53
2019-01-06T23:18:32.249Z,8.56
2019-01-06T23:21:31.885Z,8.57
2019-01-06T23:24:22.069Z,8.58
2019-01-06T23:27:21.858Z,8.57
2019-01-06T23:30:18.535Z,8.57
2019-01-06T23:33:10.928Z,8.58
2019-01-06T23:36:17.018Z,8.61
2019-01-06T23:39:08.415Z,8.64
2019-01-06T23:41:57.681Z,8.65
2019-01-06T23:44:57.084Z,8.68
2019-01-06T23:48:02.566Z,8.72
2019-01-06T23:50:52.081Z,8.73
2019-01-06T23:53:47.542Z,8.76
2019-01-06T23:56:37.774Z,8.78
2019-01-06T23:59:51.560Z,8.78
